sensor_id;sensor_type;location;lat;lon;timestamp;temperature;humidity
42085;DHT22;27746;52.228;20.890;2022-11-20T00:01:04;-3.50;97.80
42085;DHT22;27746;52.228;20.890;2022-11-20T00:03:31;-3.50;97.80
42085;DHT22;27746;52.228;20.890;2022-11-20T00:05:59;-3.50;97.90
42085;DHT22;27746;52.228;20.890;2022-11-20T00:08:26;-3.50;98.00
42085;DHT22;27746;52.228;20.890;2022-11-20T00:10:54;-3.50;98.00
42085;DHT22;27746;52.228;20.890;2022-11-20T00:13:21;-3.40;98.10
42085;DHT22;27746;52.228;20.890;2022-11-20T00:15:56;-3.50;98.10
42085;DHT22;27746;52.228;20.890;2022-11-20T00:18:24;-3.50;98.00
42085;DHT22;27746;52.228;20.890;2022-11-20T00:20:50;-3.50;98.10
42085;DHT22;27746;52.228;20.890;2022-11-20T00:23:17;-3.50;98.10
42085;DHT22;27746;52.228;20.890;2022-11-20T00:25:44;-3.50;98.20
42085;DHT22;27746;52.228;20.890;2022-11-20T00:28:11;-3.50;98.20
42085;DHT22;27746;52.228;20.890;2022-11-20T00:30:38;-3.50;98.10
42085;DHT22;27746;52.228;20.890;2022-11-20T00:33:06;-3.50;98.10
42085;DHT22;27746;52.228;20.890;2022-11-20T00:35:33;-3.50;98.20
42085;DHT22;27746;52.228;20.890;2022-11-20T00:38:00;-3.50;98.20
42085;DHT22;27746;52.228;20.890;2022-11-20T00:40:29;-3.50;98.30
42085;DHT22;27746;52.228;20.890;2022-11-20T00:42:55;-3.50;98.40
42085;DHT22;27746;52.228;20.890;2022-11-20T00:45:22;-3.50;98.30
42085;DHT22;27746;52.228;20.890;2022-11-20T00:47:49;-3.50;98.40
42085;DHT22;27746;52.228;20.890;2022-11-20T00:50:19;-3.50;98.50
42085;DHT22;27746;52.228;20.890;2022-11-20T00:52:46;-3.50;98.50
42085;DHT22;27746;52.228;20.890;2022-11-20T00:55:14;-3.50;98.60
42085;DHT22;27746;52.228;20.890;2022-11-20T00:57:40;-3.40;98.60
42085;DHT22;27746;52.228;20.890;2022-11-20T01:00:08;-3.40;98.50
42085;DHT22;27746;52.228;20.890;2022-11-20T01:02:35;-3.40;98.50
42085;DHT22;27746;52.228;20.890;2022-11-20T01:05:02;-3.30;98.50
42085;DHT22;27746;52.228;20.890;2022-11-20T01:07:32;-3.30;98.50
42085;DHT22;27746;52.228;20.890;2022-11-20T01:09:58;-3.30;98.50
42085;DHT22;27746;52.228;20.890;2022-11-20T01:12:25;-3.30;98.50
42085;DHT22;27746;52.228;20.890;2022-11-20T01:14:52;-3.30;98.50
42085;DHT22;27746;52.228;20.890;2022-11-20T01:17:21;-3.30;98.50
42085;DHT22;27746;52.228;20.890;2022-11-20T01:19:48;-3.30;98.60
42085;DHT22;27746;52.228;20.890;2022-11-20T01:22:15;-3.20;98.60
42085;DHT22;27746;52.228;20.890;2022-11-20T01:24:43;-3.20;98.50
42085;DHT22;27746;52.228;20.890;2022-11-20T01:27:10;-3.20;98.40
42085;DHT22;27746;52.228;20.890;2022-11-20T01:29:37;-3.20;98.40
42085;DHT22;27746;52.228;20.890;2022-11-20T01:32:04;-2.40;98.60
42085;DHT22;27746;52.228;20.890;2022-11-20T01:34:31;-3.20;98.40
42085;DHT22;27746;52.228;20.890;2022-11-20T01:36:57;-3.30;98.40
42085;DHT22;27746;52.228;20.890;2022-11-20T01:39:26;-3.20;98.40
42085;DHT22;27746;52.228;20.890;2022-11-20T01:41:55;-3.20;98.40
42085;DHT22;27746;52.228;20.890;2022-11-20T01:44:49;-3.20;98.40
42085;DHT22;27746;52.228;20.890;2022-11-20T01:47:17;-3.20;98.30
42085;DHT22;27746;52.228;20.890;2022-11-20T01:49:49;-3.20;98.30
42085;DHT22;27746;52.228;20.890;2022-11-20T01:52:19;-3.20;98.40
42085;DHT22;27746;52.228;20.890;2022-11-20T01:54:49;-3.20;98.40
42085;DHT22;27746;52.228;20.890;2022-11-20T01:57:20;-3.20;98.40
42085;DHT22;27746;52.228;20.890;2022-11-20T01:59:52;-3.20;98.30
42085;DHT22;27746;52.228;20.890;2022-11-20T02:02:20;-3.20;98.40
42085;DHT22;27746;52.228;20.890;2022-11-20T02:04:49;-1.20;98.90
42085;DHT22;27746;52.228;20.890;2022-11-20T02:07:18;-3.20;98.30
42085;DHT22;27746;52.228;20.890;2022-11-20T02:09:46;-3.30;98.30
42085;DHT22;27746;52.228;20.890;2022-11-20T02:12:12;-3.20;98.40
42085;DHT22;27746;52.228;20.890;2022-11-20T02:14:54;-3.20;98.40
42085;DHT22;27746;52.228;20.890;2022-11-20T02:17:21;-3.20;98.40
42085;DHT22;27746;52.228;20.890;2022-11-20T02:19:48;-3.20;98.40
42085;DHT22;27746;52.228;20.890;2022-11-20T02:22:19;-3.20;98.40
42085;DHT22;27746;52.228;20.890;2022-11-20T02:24:49;-3.20;98.40
42085;DHT22;27746;52.228;20.890;2022-11-20T02:27:17;-3.20;98.50
42085;DHT22;27746;52.228;20.890;2022-11-20T02:29:47;-3.20;98.50
42085;DHT22;27746;52.228;20.890;2022-11-20T02:32:19;-3.20;98.60
42085;DHT22;27746;52.228;20.890;2022-11-20T02:34:47;-3.20;98.80
42085;DHT22;27746;52.228;20.890;2022-11-20T02:37:14;-3.30;98.90
42085;DHT22;27746;52.228;20.890;2022-11-20T02:39:41;-3.30;98.90
42085;DHT22;27746;52.228;20.890;2022-11-20T02:42:10;-3.30;99.00
42085;DHT22;27746;52.228;20.890;2022-11-20T02:44:37;-3.30;99.20
42085;DHT22;27746;52.228;20.890;2022-11-20T02:47:04;-3.30;99.20
42085;DHT22;27746;52.228;20.890;2022-11-20T02:49:31;-3.30;99.40
42085;DHT22;27746;52.228;20.890;2022-11-20T02:51:58;-3.40;99.40
42085;DHT22;27746;52.228;20.890;2022-11-20T02:54:25;-3.40;99.60
42085;DHT22;27746;52.228;20.890;2022-11-20T02:56:52;-3.40;99.60
42085;DHT22;27746;52.228;20.890;2022-11-20T02:59:20;-3.40;99.70
42085;DHT22;27746;52.228;20.890;2022-11-20T03:02:01;-3.40;99.80
42085;DHT22;27746;52.228;20.890;2022-11-20T03:04:28;-3.50;99.80
42085;DHT22;27746;52.228;20.890;2022-11-20T03:06:55;-3.50;99.90
42085;DHT22;27746;52.228;20.890;2022-11-20T03:09:23;-3.60;99.90
42085;DHT22;27746;52.228;20.890;2022-11-20T03:11:52;-3.60;99.90
42085;DHT22;27746;52.228;20.890;2022-11-20T03:14:20;-3.60;99.90
42085;DHT22;27746;52.228;20.890;2022-11-20T03:16:48;-3.60;99.90
42085;DHT22;27746;52.228;20.890;2022-11-20T03:19:15;-3.60;99.90
42085;DHT22;27746;52.228;20.890;2022-11-20T03:21:41;-3.60;99.90
42085;DHT22;27746;52.228;20.890;2022-11-20T03:24:08;-3.50;99.90
42085;DHT22;27746;52.228;20.890;2022-11-20T03:26:35;-3.50;99.90
42085;DHT22;27746;52.228;20.890;2022-11-20T03:29:05;-3.60;99.90
42085;DHT22;27746;52.228;20.890;2022-11-20T03:31:35;-3.50;99.90
42085;DHT22;27746;52.228;20.890;2022-11-20T03:34:03;-3.60;99.90
42085;DHT22;27746;52.228;20.890;2022-11-20T03:36:30;-3.60;99.90
42085;DHT22;27746;52.228;20.890;2022-11-20T03:38:57;-3.60;99.90
42085;DHT22;27746;52.228;20.890;2022-11-20T03:41:25;-3.60;99.90
42085;DHT22;27746;52.228;20.890;2022-11-20T03:43:53;-4.40;99.90
42085;DHT22;27746;52.228;20.890;2022-11-20T03:46:21;-3.70;99.90
42085;DHT22;27746;52.228;20.890;2022-11-20T03:48:49;-3.70;99.90
42085;DHT22;27746;52.228;20.890;2022-11-20T03:51:17;-3.80;99.90
42085;DHT22;27746;52.228;20.890;2022-11-20T03:53:46;-3.80;99.90
42085;DHT22;27746;52.228;20.890;2022-11-20T03:56:14;-3.80;99.90
42085;DHT22;27746;52.228;20.890;2022-11-20T03:58:42;-3.80;99.90
42085;DHT22;27746;52.228;20.890;2022-11-20T04:01:13;-3.80;99.90
42085;DHT22;27746;52.228;20.890;2022-11-20T04:03:43;-3.90;99.90
42085;DHT22;27746;52.228;20.890;2022-11-20T04:06:15;-3.90;99.90
42085;DHT22;27746;52.228;20.890;2022-11-20T04:08:42;-3.90;99.90
42085;DHT22;27746;52.228;20.890;2022-11-20T04:11:10;-3.90;99.90
42085;DHT22;27746;52.228;20.890;2022-11-20T04:13:37;-3.90;99.90
42085;DHT22;27746;52.228;20.890;2022-11-20T04:16:04;-3.90;99.90
42085;DHT22;27746;52.228;20.890;2022-11-20T04:18:31;-3.90;99.90
42085;DHT22;27746;52.228;20.890;2022-11-20T04:20:58;-4.00;99.90
42085;DHT22;27746;52.228;20.890;2022-11-20T04:23:27;-4.00;99.90
42085;DHT22;27746;52.228;20.890;2022-11-20T04:25:55;-4.00;99.90
42085;DHT22;27746;52.228;20.890;2022-11-20T04:28:27;-4.00;99.90
42085;DHT22;27746;52.228;20.890;2022-11-20T04:30:54;-4.00;99.90
42085;DHT22;27746;52.228;20.890;2022-11-20T04:33:21;-4.10;99.90
42085;DHT22;27746;52.228;20.890;2022-11-20T04:35:47;-4.10;99.90
42085;DHT22;27746;52.228;20.890;2022-11-20T04:38:15;-4.10;99.90
42085;DHT22;27746;52.228;20.890;2022-11-20T04:40:44;-4.10;99.90
42085;DHT22;27746;52.228;20.890;2022-11-20T04:43:11;-4.20;99.90
42085;DHT22;27746;52.228;20.890;2022-11-20T04:45:38;-4.20;99.90
42085;DHT22;27746;52.228;20.890;2022-11-20T04:48:05;-4.20;99.90
42085;DHT22;27746;52.228;20.890;2022-11-20T04:50:32;-4.20;99.90
42085;DHT22;27746;52.228;20.890;2022-11-20T04:52:59;-4.20;99.90
42085;DHT22;27746;52.228;20.890;2022-11-20T04:55:25;-4.20;99.90
42085;DHT22;27746;52.228;20.890;2022-11-20T04:57:53;-4.20;99.90
42085;DHT22;27746;52.228;20.890;2022-11-20T05:00:20;-4.30;99.90
42085;DHT22;27746;52.228;20.890;2022-11-20T05:02:47;-4.30;99.90
42085;DHT22;27746;52.228;20.890;2022-11-20T05:05:14;-4.30;99.90
42085;DHT22;27746;52.228;20.890;2022-11-20T05:07:41;-4.30;99.90
42085;DHT22;27746;52.228;20.890;2022-11-20T05:10:08;-4.30;99.90
42085;DHT22;27746;52.228;20.890;2022-11-20T05:12:35;-4.30;99.90
42085;DHT22;27746;52.228;20.890;2022-11-20T05:15:03;-4.40;99.90
42085;DHT22;27746;52.228;20.890;2022-11-20T05:17:30;-4.40;99.90
42085;DHT22;27746;52.228;20.890;2022-11-20T05:19:57;-4.40;99.90
42085;DHT22;27746;52.228;20.890;2022-11-20T05:22:24;-4.40;99.90
42085;DHT22;27746;52.228;20.890;2022-11-20T05:24:51;-4.40;99.90
42085;DHT22;27746;52.228;20.890;2022-11-20T05:27:17;-4.40;99.90
42085;DHT22;27746;52.228;20.890;2022-11-20T05:29:44;-4.40;99.90
42085;DHT22;27746;52.228;20.890;2022-11-20T05:32:12;-4.40;99.90
42085;DHT22;27746;52.228;20.890;2022-11-20T05:34:39;-4.40;99.90
42085;DHT22;27746;52.228;20.890;2022-11-20T05:37:07;-4.40;99.90
42085;DHT22;27746;52.228;20.890;2022-11-20T05:39:34;-6.40;99.90
42085;DHT22;27746;52.228;20.890;2022-11-20T05:42:01;-4.50;99.90
42085;DHT22;27746;52.228;20.890;2022-11-20T05:44:45;-4.50;99.90
42085;DHT22;27746;52.228;20.890;2022-11-20T05:47:13;-4.50;99.90
42085;DHT22;27746;52.228;20.890;2022-11-20T05:49:40;-4.50;99.90
42085;DHT22;27746;52.228;20.890;2022-11-20T05:52:07;-4.50;99.90
42085;DHT22;27746;52.228;20.890;2022-11-20T05:54:33;-4.50;99.90
42085;DHT22;27746;52.228;20.890;2022-11-20T05:57:00;-4.60;99.90
42085;DHT22;27746;52.228;20.890;2022-11-20T05:59:27;-4.60;99.90
42085;DHT22;27746;52.228;20.890;2022-11-20T06:01:55;-4.60;99.90
42085;DHT22;27746;52.228;20.890;2022-11-20T06:04:23;-4.60;99.90
42085;DHT22;27746;52.228;20.890;2022-11-20T06:06:50;-4.60;99.90
42085;DHT22;27746;52.228;20.890;2022-11-20T06:09:17;-4.60;99.90
42085;DHT22;27746;52.228;20.890;2022-11-20T06:11:44;-4.60;99.90
42085;DHT22;27746;52.228;20.890;2022-11-20T06:14:10;-4.60;99.90
42085;DHT22;27746;52.228;20.890;2022-11-20T06:16:37;-4.60;99.90
42085;DHT22;27746;52.228;20.890;2022-11-20T06:19:04;-4.60;99.90
42085;DHT22;27746;52.228;20.890;2022-11-20T06:21:32;-4.60;99.90
42085;DHT22;27746;52.228;20.890;2022-11-20T06:23:59;-4.70;99.90
42085;DHT22;27746;52.228;20.890;2022-11-20T06:26:27;-4.70;99.90
42085;DHT22;27746;52.228;20.890;2022-11-20T06:28:54;-4.70;99.90
42085;DHT22;27746;52.228;20.890;2022-11-20T06:31:23;-4.60;99.90
42085;DHT22;27746;52.228;20.890;2022-11-20T06:33:51;-4.60;99.90
42085;DHT22;27746;52.228;20.890;2022-11-20T06:36:20;-4.60;99.90
42085;DHT22;27746;52.228;20.890;2022-11-20T06:38:48;-4.50;99.90
42085;DHT22;27746;52.228;20.890;2022-11-20T06:41:17;-4.40;99.90
42085;DHT22;27746;52.228;20.890;2022-11-20T06:43:44;-4.40;99.90
42085;DHT22;27746;52.228;20.890;2022-11-20T06:46:12;-4.40;99.90
42085;DHT22;27746;52.228;20.890;2022-11-20T06:48:40;-4.30;99.90
42085;DHT22;27746;52.228;20.890;2022-11-20T06:51:07;-3.80;99.90
42085;DHT22;27746;52.228;20.890;2022-11-20T06:53:35;-4.30;99.90
42085;DHT22;27746;52.228;20.890;2022-11-20T06:56:03;-4.20;99.90
42085;DHT22;27746;52.228;20.890;2022-11-20T06:58:32;-4.10;99.90
42085;DHT22;27746;52.228;20.890;2022-11-20T07:00:59;-4.00;99.90
42085;DHT22;27746;52.228;20.890;2022-11-20T07:03:26;-4.00;99.90
42085;DHT22;27746;52.228;20.890;2022-11-20T07:05:54;-3.90;99.90
42085;DHT22;27746;52.228;20.890;2022-11-20T07:08:22;-3.90;99.90
42085;DHT22;27746;52.228;20.890;2022-11-20T07:10:48;-3.80;99.90
42085;DHT22;27746;52.228;20.890;2022-11-20T07:13:17;-3.70;99.90
42085;DHT22;27746;52.228;20.890;2022-11-20T07:15:43;-3.70;99.90
42085;DHT22;27746;52.228;20.890;2022-11-20T07:18:10;-3.60;99.90
42085;DHT22;27746;52.228;20.890;2022-11-20T07:20:37;-3.60;99.90
42085;DHT22;27746;52.228;20.890;2022-11-20T07:23:03;-3.60;99.90
42085;DHT22;27746;52.228;20.890;2022-11-20T07:25:30;-3.60;99.90
42085;DHT22;27746;52.228;20.890;2022-11-20T07:27:58;-3.40;99.90
42085;DHT22;27746;52.228;20.890;2022-11-20T07:30:27;-3.20;99.90
42085;DHT22;27746;52.228;20.890;2022-11-20T07:32:55;-3.10;99.90
42085;DHT22;27746;52.228;20.890;2022-11-20T07:35:22;-3.00;99.90
42085;DHT22;27746;52.228;20.890;2022-11-20T07:37:49;-2.80;99.90
42085;DHT22;27746;52.228;20.890;2022-11-20T07:40:17;-2.60;99.90
42085;DHT22;27746;52.228;20.890;2022-11-20T07:42:48;-2.40;99.90
42085;DHT22;27746;52.228;20.890;2022-11-20T07:45:15;-2.20;99.90
42085;DHT22;27746;52.228;20.890;2022-11-20T07:47:43;-1.90;99.90
42085;DHT22;27746;52.228;20.890;2022-11-20T07:50:11;-1.70;99.90
42085;DHT22;27746;52.228;20.890;2022-11-20T07:52:38;-1.50;99.50
42085;DHT22;27746;52.228;20.890;2022-11-20T07:55:07;-1.20;99.10
42085;DHT22;27746;52.228;20.890;2022-11-20T07:57:34;-0.70;98.90
42085;DHT22;27746;52.228;20.890;2022-11-20T08:00:00;-0.50;97.60
42085;DHT22;27746;52.228;20.890;2022-11-20T08:02:27;-0.30;97.30
42085;DHT22;27746;52.228;20.890;2022-11-20T08:04:55;-0.30;96.80
42085;DHT22;27746;52.228;20.890;2022-11-20T08:07:22;-0.10;96.30
42085;DHT22;27746;52.228;20.890;2022-11-20T08:09:49;-0.10;96.10
42085;DHT22;27746;52.228;20.890;2022-11-20T08:12:18;0.10;96.20
42085;DHT22;27746;52.228;20.890;2022-11-20T08:15:03;0.30;95.70
42085;DHT22;27746;52.228;20.890;2022-11-20T08:17:30;0.60;94.80
42085;DHT22;27746;52.228;20.890;2022-11-20T08:19:58;0.90;94.60
42085;DHT22;27746;52.228;20.890;2022-11-20T08:22:27;1.30;94.00
42085;DHT22;27746;52.228;20.890;2022-11-20T08:24:54;1.80;93.50
42085;DHT22;27746;52.228;20.890;2022-11-20T08:27:21;2.30;92.60
42085;DHT22;27746;52.228;20.890;2022-11-20T08:29:47;2.70;92.10
42085;DHT22;27746;52.228;20.890;2022-11-20T08:32:14;2.50;91.30
42085;DHT22;27746;52.228;20.890;2022-11-20T08:34:41;2.30;91.20
42085;DHT22;27746;52.228;20.890;2022-11-20T08:37:09;1.90;91.30
42085;DHT22;27746;52.228;20.890;2022-11-20T08:39:36;1.90;91.90
42085;DHT22;27746;52.228;20.890;2022-11-20T08:42:06;1.70;92.10
42085;DHT22;27746;52.228;20.890;2022-11-20T08:44:33;1.90;92.10
42085;DHT22;27746;52.228;20.890;2022-11-20T08:47:00;2.20;92.00
42085;DHT22;27746;52.228;20.890;2022-11-20T08:49:27;2.60;91.00
42085;DHT22;27746;52.228;20.890;2022-11-20T08:51:53;3.10;90.70
42085;DHT22;27746;52.228;20.890;2022-11-20T08:58:04;4.50;86.80
42085;DHT22;27746;52.228;20.890;2022-11-20T09:00:31;5.50;84.30
42085;DHT22;27746;52.228;20.890;2022-11-20T09:02:58;6.00;81.60
42085;DHT22;27746;52.228;20.890;2022-11-20T09:05:26;6.60;79.60
42085;DHT22;27746;52.228;20.890;2022-11-20T09:07:55;6.90;77.30
42085;DHT22;27746;52.228;20.890;2022-11-20T09:10:22;7.70;75.90
42085;DHT22;27746;52.228;20.890;2022-11-20T09:12:49;9.30;73.60
42085;DHT22;27746;52.228;20.890;2022-11-20T09:15:21;8.70;70.70
42085;DHT22;27746;52.228;20.890;2022-11-20T09:17:51;8.80;69.30
42085;DHT22;27746;52.228;20.890;2022-11-20T09:20:18;8.90;69.40
42085;DHT22;27746;52.228;20.890;2022-11-20T09:22:44;10.00;68.30
42085;DHT22;27746;52.228;20.890;2022-11-20T09:25:11;11.00;65.60
42085;DHT22;27746;52.228;20.890;2022-11-20T09:27:38;11.80;63.50
42085;DHT22;27746;52.228;20.890;2022-11-20T09:30:09;12.40;60.70
42085;DHT22;27746;52.228;20.890;2022-11-20T09:32:38;12.50;60.30
42085;DHT22;27746;52.228;20.890;2022-11-20T09:35:24;13.00;58.40
42085;DHT22;27746;52.228;20.890;2022-11-20T09:37:56;13.00;58.40
42085;DHT22;27746;52.228;20.890;2022-11-20T09:43:03;13.20;57.10
42085;DHT22;27746;52.228;20.890;2022-11-20T09:51:20;14.20;54.80
42085;DHT22;27746;52.228;20.890;2022-11-20T09:54:00;14.60;53.60
42085;DHT22;27746;52.228;20.890;2022-11-20T09:56:30;15.30;53.50
42085;DHT22;27746;52.228;20.890;2022-11-20T09:59:02;15.50;51.90
42085;DHT22;27746;52.228;20.890;2022-11-20T10:01:32;15.20;51.60
42085;DHT22;27746;52.228;20.890;2022-11-20T10:04:02;15.20;51.60
42085;DHT22;27746;52.228;20.890;2022-11-20T10:06:34;15.10;52.20
42085;DHT22;27746;52.228;20.890;2022-11-20T10:09:14;14.60;52.30
42085;DHT22;27746;52.228;20.890;2022-11-20T10:11:48;14.10;52.70
42085;DHT22;27746;52.228;20.890;2022-11-20T10:14:24;14.50;53.00
42085;DHT22;27746;52.228;20.890;2022-11-20T10:16:59;15.10;52.30
42085;DHT22;27746;52.228;20.890;2022-11-20T10:19:51;14.00;51.80
42085;DHT22;27746;52.228;20.890;2022-11-20T10:22:32;14.60;52.20
42085;DHT22;27746;52.228;20.890;2022-11-20T10:25:06;14.70;52.60
42085;DHT22;27746;52.228;20.890;2022-11-20T14:02:27;15.30;51.70
42085;DHT22;27746;52.228;20.890;2022-11-20T14:04:57;3.60;78.80
42085;DHT22;27746;52.228;20.890;2022-11-20T14:12:28;3.00;79.30
42085;DHT22;27746;52.228;20.890;2022-11-20T14:14:55;2.60;81.40
42085;DHT22;27746;52.228;20.890;2022-11-20T14:17:24;2.50;82.20
42085;DHT22;27746;52.228;20.890;2022-11-20T14:19:58;2.40;83.50
42085;DHT22;27746;52.228;20.890;2022-11-20T14:22:27;2.30;83.40
42085;DHT22;27746;52.228;20.890;2022-11-20T14:25:03;2.10;83.90
42085;DHT22;27746;52.228;20.890;2022-11-20T14:27:34;2.00;84.90
42085;DHT22;27746;52.228;20.890;2022-11-20T14:30:05;1.90;85.00
42085;DHT22;27746;52.228;20.890;2022-11-20T14:32:35;1.90;85.70
42085;DHT22;27746;52.228;20.890;2022-11-20T14:35:07;1.80;86.00
42085;DHT22;27746;52.228;20.890;2022-11-20T14:37:37;1.80;86.40
42085;DHT22;27746;52.228;20.890;2022-11-20T14:40:25;1.70;86.80
42085;DHT22;27746;52.228;20.890;2022-11-20T14:42:54;1.60;87.30
42085;DHT22;27746;52.228;20.890;2022-11-20T14:45:22;1.60;87.90
42085;DHT22;27746;52.228;20.890;2022-11-20T14:47:50;1.50;88.20
42085;DHT22;27746;52.228;20.890;2022-11-20T14:50:20;1.60;88.80
42085;DHT22;27746;52.228;20.890;2022-11-20T14:52:55;1.40;89.10
42085;DHT22;27746;52.228;20.890;2022-11-20T14:55:26;1.40;89.50
42085;DHT22;27746;52.228;20.890;2022-11-20T14:58:01;1.40;90.00
42085;DHT22;27746;52.228;20.890;2022-11-20T15:00:28;1.40;90.00
42085;DHT22;27746;52.228;20.890;2022-11-20T15:02:56;1.40;90.40
42085;DHT22;27746;52.228;20.890;2022-11-20T15:05:24;1.30;90.60
42085;DHT22;27746;52.228;20.890;2022-11-20T15:08:05;1.30;91.30
42085;DHT22;27746;52.228;20.890;2022-11-20T15:10:32;1.10;91.90
42085;DHT22;27746;52.228;20.890;2022-11-20T15:13:02;1.10;92.40
42085;DHT22;27746;52.228;20.890;2022-11-20T15:15:32;1.00;92.80
42085;DHT22;27746;52.228;20.890;2022-11-20T15:18:00;1.00;93.20
42085;DHT22;27746;52.228;20.890;2022-11-20T15:20:29;0.90;93.50
42085;DHT22;27746;52.228;20.890;2022-11-20T15:22:57;0.80;94.00
42085;DHT22;27746;52.228;20.890;2022-11-20T15:25:23;-0.60;94.20
42085;DHT22;27746;52.228;20.890;2022-11-20T15:27:54;0.60;94.70
42085;DHT22;27746;52.228;20.890;2022-11-20T15:32:50;0.60;95.00
42085;DHT22;27746;52.228;20.890;2022-11-20T15:35:17;0.50;96.00
42085;DHT22;27746;52.228;20.890;2022-11-20T15:37:43;0.40;95.80
42085;DHT22;27746;52.228;20.890;2022-11-20T15:40:11;0.40;96.00
42085;DHT22;27746;52.228;20.890;2022-11-20T15:42:38;0.30;96.30
42085;DHT22;27746;52.228;20.890;2022-11-20T15:45:28;0.20;96.60
42085;DHT22;27746;52.228;20.890;2022-11-20T15:47:56;0.20;97.10
42085;DHT22;27746;52.228;20.890;2022-11-20T15:50:26;0.10;97.30
42085;DHT22;27746;52.228;20.890;2022-11-20T15:52:53;0.10;97.60
42085;DHT22;27746;52.228;20.890;2022-11-20T15:55:20;0.00;97.90
42085;DHT22;27746;52.228;20.890;2022-11-20T15:57:47;1.30;98.50
42085;DHT22;27746;52.228;20.890;2022-11-20T16:00:15;-0.10;98.50
42085;DHT22;27746;52.228;20.890;2022-11-20T16:02:43;-0.20;98.80
42085;DHT22;27746;52.228;20.890;2022-11-20T16:05:11;-0.20;99.10
42085;DHT22;27746;52.228;20.890;2022-11-20T16:07:38;-0.30;99.30
42085;DHT22;27746;52.228;20.890;2022-11-20T16:10:05;-0.30;99.60
42085;DHT22;27746;52.228;20.890;2022-11-20T16:12:33;-0.40;99.80
42085;DHT22;27746;52.228;20.890;2022-11-20T16:15:18;-0.40;99.90
42085;DHT22;27746;52.228;20.890;2022-11-20T16:18:03;-0.50;99.90
42085;DHT22;27746;52.228;20.890;2022-11-20T16:20:33;-0.50;99.90
42085;DHT22;27746;52.228;20.890;2022-11-20T16:23:00;-0.60;99.90
42085;DHT22;27746;52.228;20.890;2022-11-20T16:25:27;-0.60;99.90
42085;DHT22;27746;52.228;20.890;2022-11-20T16:27:54;-0.60;99.90
42085;DHT22;27746;52.228;20.890;2022-11-20T16:30:20;-0.70;99.90
42085;DHT22;27746;52.228;20.890;2022-11-20T16:32:47;-0.70;99.90
42085;DHT22;27746;52.228;20.890;2022-11-20T16:35:16;-0.70;99.90
42085;DHT22;27746;52.228;20.890;2022-11-20T16:37:42;-0.80;99.90
42085;DHT22;27746;52.228;20.890;2022-11-20T16:40:10;-0.80;99.90
42085;DHT22;27746;52.228;20.890;2022-11-20T16:42:37;-0.80;99.90
42085;DHT22;27746;52.228;20.890;2022-11-20T16:45:05;-0.90;99.90
42085;DHT22;27746;52.228;20.890;2022-11-20T16:47:32;-1.00;99.90
42085;DHT22;27746;52.228;20.890;2022-11-20T16:50:00;-1.00;99.90
42085;DHT22;27746;52.228;20.890;2022-11-20T16:52:28;-1.00;99.90
42085;DHT22;27746;52.228;20.890;2022-11-20T16:54:56;-1.00;99.90
42085;DHT22;27746;52.228;20.890;2022-11-20T16:57:23;-1.10;99.90
42085;DHT22;27746;52.228;20.890;2022-11-20T16:59:49;-1.10;99.90
42085;DHT22;27746;52.228;20.890;2022-11-20T17:02:16;-1.00;99.90
42085;DHT22;27746;52.228;20.890;2022-11-20T17:04:43;0.20;99.90
42085;DHT22;27746;52.228;20.890;2022-11-20T17:07:10;-1.10;99.90
42085;DHT22;27746;52.228;20.890;2022-11-20T17:09:38;-1.10;99.90
42085;DHT22;27746;52.228;20.890;2022-11-20T17:12:05;-1.20;99.90
42085;DHT22;27746;52.228;20.890;2022-11-20T17:14:32;-1.20;99.90
42085;DHT22;27746;52.228;20.890;2022-11-20T17:16:58;-1.30;99.90
42085;DHT22;27746;52.228;20.890;2022-11-20T17:19:25;-1.30;99.90
42085;DHT22;27746;52.228;20.890;2022-11-20T17:21:52;-1.30;99.90
42085;DHT22;27746;52.228;20.890;2022-11-20T17:24:19;-1.30;99.90
42085;DHT22;27746;52.228;20.890;2022-11-20T17:26:48;-1.40;99.90
42085;DHT22;27746;52.228;20.890;2022-11-20T17:29:16;-1.30;99.90
42085;DHT22;27746;52.228;20.890;2022-11-20T17:31:43;-1.40;99.90
42085;DHT22;27746;52.228;20.890;2022-11-20T17:34:12;-1.40;99.90
42085;DHT22;27746;52.228;20.890;2022-11-20T17:36:40;-1.40;99.90
42085;DHT22;27746;52.228;20.890;2022-11-20T17:39:09;-1.40;99.90
42085;DHT22;27746;52.228;20.890;2022-11-20T17:41:36;-1.50;99.90
42085;DHT22;27746;52.228;20.890;2022-11-20T17:44:04;-1.50;99.90
42085;DHT22;27746;52.228;20.890;2022-11-20T17:46:32;-1.50;99.90
42085;DHT22;27746;52.228;20.890;2022-11-20T17:49:00;-1.50;99.90
42085;DHT22;27746;52.228;20.890;2022-11-20T17:51:28;-1.60;99.90
42085;DHT22;27746;52.228;20.890;2022-11-20T17:53:57;-1.60;99.90
42085;DHT22;27746;52.228;20.890;2022-11-20T17:56:25;-1.60;99.90
42085;DHT22;27746;52.228;20.890;2022-11-20T17:59:11;-1.60;99.90
42085;DHT22;27746;52.228;20.890;2022-11-20T18:01:40;-1.70;99.90
42085;DHT22;27746;52.228;20.890;2022-11-20T18:04:09;-1.70;99.90
42085;DHT22;27746;52.228;20.890;2022-11-20T18:06:36;-1.70;99.90
42085;DHT22;27746;52.228;20.890;2022-11-20T18:09:04;-1.70;99.90
42085;DHT22;27746;52.228;20.890;2022-11-20T18:11:33;-1.70;99.90
42085;DHT22;27746;52.228;20.890;2022-11-20T18:14:01;-1.70;99.90
42085;DHT22;27746;52.228;20.890;2022-11-20T18:16:50;-1.70;99.90
42085;DHT22;27746;52.228;20.890;2022-11-20T18:19:19;-1.70;99.90
42085;DHT22;27746;52.228;20.890;2022-11-20T18:21:46;0.30;99.90
42085;DHT22;27746;52.228;20.890;2022-11-20T18:24:13;-1.80;99.90
42085;DHT22;27746;52.228;20.890;2022-11-20T18:26:40;-1.80;99.90
42085;DHT22;27746;52.228;20.890;2022-11-20T18:29:07;-1.70;99.90
42085;DHT22;27746;52.228;20.890;2022-11-20T18:31:33;-1.80;99.90
42085;DHT22;27746;52.228;20.890;2022-11-20T18:34:02;-1.80;99.90
42085;DHT22;27746;52.228;20.890;2022-11-20T18:36:29;-1.80;99.90
42085;DHT22;27746;52.228;20.890;2022-11-20T18:38:58;-1.80;99.90
42085;DHT22;27746;52.228;20.890;2022-11-20T18:41:27;-1.80;99.90
42085;DHT22;27746;52.228;20.890;2022-11-20T18:44:14;-1.80;99.90
42085;DHT22;27746;52.228;20.890;2022-11-20T18:46:59;-1.80;99.90
42085;DHT22;27746;52.228;20.890;2022-11-20T18:49:27;-1.70;99.90
42085;DHT22;27746;52.228;20.890;2022-11-20T18:51:54;-1.60;99.90
42085;DHT22;27746;52.228;20.890;2022-11-20T18:54:21;-1.60;99.90
42085;DHT22;27746;52.228;20.890;2022-11-20T18:56:48;-1.50;99.90
42085;DHT22;27746;52.228;20.890;2022-11-20T18:59:18;-1.50;99.90
42085;DHT22;27746;52.228;20.890;2022-11-20T19:01:45;-1.50;99.90
42085;DHT22;27746;52.228;20.890;2022-11-20T19:04:14;-1.60;99.90
42085;DHT22;27746;52.228;20.890;2022-11-20T19:06:44;-1.50;99.90
42085;DHT22;27746;52.228;20.890;2022-11-20T19:09:14;-1.30;99.90
42085;DHT22;27746;52.228;20.890;2022-11-20T19:11:41;-1.50;99.90
42085;DHT22;27746;52.228;20.890;2022-11-20T19:14:08;-1.60;99.90
42085;DHT22;27746;52.228;20.890;2022-11-20T19:16:35;-1.60;99.90
42085;DHT22;27746;52.228;20.890;2022-11-20T19:19:03;-0.70;99.90
42085;DHT22;27746;52.228;20.890;2022-11-20T19:21:31;-1.60;99.90
42085;DHT22;27746;52.228;20.890;2022-11-20T19:24:01;-1.70;99.90